Time;durP1;ratioP1;P1;durP2;ratioP2;P2;SDS_P1;SDS_P2;PMS_P1;PMS_P2;Temp;Humidity;BMP_temperature;BMP_pressure;BME280_temperature;BME280_humidity;BME280_pressure;Samples;Min_cycle;Max_cycle;Signal;HPM_P1;HPM_P2
2021/04/12 00:00:00;;;;;;;3.85;1.80;;;3.70;92.60;;;;;;4972709;28;20033;-90
2021/04/12 00:03:04;;;;;;;4.10;1.98;;;3.70;92.70;;;;;;4977041;28;20030;-89
2021/04/12 00:05:41;;;;;;;5.07;1.85;;;3.70;92.70;;;;;;4906233;29;20052;-89
2021/04/12 00:08:21;;;;;;;4.30;2.47;;;3.70;92.80;;;;;;4980729;28;20538;-89
2021/04/12 00:10:54;;;;;;;4.57;2.00;;;3.60;92.90;;;;;;4956782;28;20403;-88
2021/04/12 00:13:29;;;;;;;4.25;2.03;;;3.60;92.90;;;;;;4975881;28;20026;-89
2021/04/12 00:16:11;;;;;;;4.40;1.70;;;3.60;92.90;;;;;;4993674;28;20521;-88
2021/04/12 00:18:46;;;;;;;4.60;1.83;;;3.50;92.80;;;;;;4969856;28;20025;-88
2021/04/12 00:21:33;;;;;;;3.83;1.73;;;3.50;92.60;;;;;;4982522;28;20489;-89
2021/04/12 00:24:17;;;;;;;4.72;2.22;;;3.50;92.60;;;;;;4993724;28;20080;-87
2021/04/12 00:26:57;;;;;;;4.30;2.13;;;3.50;92.70;;;;;;4979872;28;20417;-88
2021/04/12 00:29:33;;;;;;;4.22;1.75;;;3.40;92.60;;;;;;4984809;28;20045;-87
2021/04/12 00:32:02;;;;;;;4.88;1.88;;;3.40;92.80;;;;;;4994126;28;20049;-87
2021/04/12 00:34:35;;;;;;;5.40;1.83;;;3.40;92.90;;;;;;5002122;28;20022;-87
2021/04/12 00:37:33;;;;;;;7.25;2.10;;;3.40;92.80;;;;;;5011624;28;20113;-88
2021/04/12 00:40:24;;;;;;;7.18;2.22;;;3.30;92.90;;;;;;4989496;28;20121;-88
2021/04/12 00:43:21;;;;;;;2.72;1.80;;;3.30;93.00;;;;;;4983993;28;20137;-88
2021/04/12 00:46:04;;;;;;;6.65;2.00;;;3.30;93.00;;;;;;4962896;28;20048;-88
2021/04/12 00:49:00;;;;;;;7.70;2.20;;;3.20;92.90;;;;;;4975568;28;20042;-88
2021/04/12 00:51:31;;;;;;;4.25;2.08;;;3.20;93.10;;;;;;5002004;28;20479;-87
2021/04/12 00:54:15;;;;;;;6.68;2.63;;;3.10;93.10;;;;;;5006623;28;20031;-87
2021/04/12 00:56:56;;;;;;;4.15;2.55;;;3.10;93.40;;;;;;4992963;28;20026;-87
2021/04/12 00:59:31;;;;;;;3.47;1.90;;;3.10;93.20;;;;;;4990105;28;20026;-87
2021/04/12 01:02:03;;;;;;;5.60;2.53;;;3.10;93.40;;;;;;4981960;28;20027;-87
2021/04/12 01:04:36;;;;;;;3.88;2.10;;;3.10;93.40;;;;;;4974664;28;20122;-86
2021/04/12 01:07:21;;;;;;;7.95;3.17;;;3.00;93.50;;;;;;4975373;28;20446;-86
2021/04/12 01:10:11;;;;;;;5.32;2.58;;;3.00;93.40;;;;;;4975367;28;20498;-87
2021/04/12 01:12:51;;;;;;;4.53;2.30;;;3.00;93.60;;;;;;5005979;28;20068;-87
2021/04/12 01:15:45;;;;;;;4.75;2.72;;;3.00;93.40;;;;;;4975715;28;20019;-87
2021/04/12 01:18:48;;;;;;;5.07;3.08;;;3.00;93.40;;;;;;4992942;28;20019;-86
2021/04/12 01:22:06;;;;;;;5.78;2.63;;;3.00;93.60;;;;;;4992544;28;20589;-87
2021/04/12 01:24:34;;;;;;;6.30;3.20;;;2.90;93.50;;;;;;4988415;28;20113;-88
2021/04/12 01:27:06;;;;;;;8.45;2.90;;;2.90;93.80;;;;;;4986503;28;20030;-87
2021/04/12 01:29:59;;;;;;;5.88;3.20;;;2.90;93.90;;;;;;4985185;28;20030;-87
2021/04/12 01:32:34;;;;;;;5.97;3.28;;;2.90;94.00;;;;;;4974131;28;20026;-86
2021/04/12 01:35:27;;;;;;;7.65;3.42;;;2.90;94.00;;;;;;4973603;28;20069;-86
2021/04/12 01:38:01;;;;;;;7.90;3.90;;;2.90;94.00;;;;;;4966680;28;20058;-87
2021/04/12 01:40:45;;;;;;;7.90;4.72;;;2.90;94.10;;;;;;4993802;28;20463;-87
2021/04/12 01:43:34;;;;;;;8.02;4.05;;;2.90;94.20;;;;;;4995451;28;20477;-87
2021/04/12 01:46:05;;;;;;;7.57;3.78;;;2.90;94.20;;;;;;4983898;28;20033;-87
2021/04/12 01:49:03;;;;;;;6.78;3.42;;;2.90;94.30;;;;;;4990585;28;20056;-87
2021/04/12 01:51:45;;;;;;;5.65;3.33;;;2.90;94.30;;;;;;4969517;28;20113;-87
2021/04/12 01:54:32;;;;;;;5.07;3.05;;;2.90;94.30;;;;;;4977986;28;20022;-86
2021/04/12 01:57:28;;;;;;;8.07;3.50;;;2.90;94.30;;;;;;4995809;28;20041;-87
2021/04/12 02:00:13;;;;;;;5.32;3.38;;;2.90;94.30;;;;;;4988274;28;20021;-87
2021/04/12 02:02:52;;;;;;;6.43;3.28;;;2.90;94.30;;;;;;4999144;28;20031;-87
2021/04/12 02:05:38;;;;;;;6.30;3.40;;;2.80;94.30;;;;;;4986364;28;20062;-86
2021/04/12 02:08:19;;;;;;;6.40;3.10;;;2.80;94.20;;;;;;4975075;28;20026;-87
2021/04/12 02:11:10;;;;;;;5.85;3.17;;;2.80;94.30;;;;;;4969839;28;20109;-87
2021/04/12 02:13:46;;;;;;;;;;;2.80;94.20;;;;;;4961238;28;20158;-87
2021/04/12 02:16:39;;;;;;;6.18;3.13;;;2.80;94.30;;;;;;4964836;28;19916;-87
2021/04/12 02:19:24;;;;;;;6.10;2.90;;;2.80;94.50;;;;;;4977470;28;20118;-87
2021/04/12 02:22:16;;;;;;;7.53;3.13;;;2.70;94.50;;;;;;4976974;28;20030;-87
2021/04/12 02:25:00;;;;;;;6.28;3.30;;;2.70;94.50;;;;;;4976916;28;20053;-87
2021/04/12 02:27:52;;;;;;;6.50;3.20;;;2.70;94.50;;;;;;4975911;28;20022;-87
2021/04/12 02:30:49;;;;;;;6.95;3.05;;;2.70;94.50;;;;;;4978420;28;20149;-87
2021/04/12 02:33:21;;;;;;;6.15;3.35;;;2.70;94.60;;;;;;4994413;28;20097;-87
2021/04/12 02:36:00;;;;;;;6.70;3.00;;;2.70;94.60;;;;;;4963932;28;20053;-86
2021/04/12 02:39:01;;;;;;;6.72;3.10;;;2.70;94.50;;;;;;4963061;28;20459;-87
2021/04/12 02:41:54;;;;;;;4.95;2.47;;;2.70;94.60;;;;;;4977240;28;20073;-87
2021/04/12 02:44:41;;;;;;;4.57;2.97;;;2.70;94.60;;;;;;4977712;28;20038;-86
2021/04/12 02:47:25;;;;;;;3.90;2.60;;;2.70;94.70;;;;;;4977482;28;20494;-86
2021/04/12 02:50:12;;;;;;;5.97;2.90;;;2.70;94.70;;;;;;4976540;28;20533;-87
2021/04/12 02:52:59;;;;;;;6.75;2.90;;;2.70;94.80;;;;;;4989339;28;20027;-87
2021/04/12 02:55:32;;;;;;;5.32;3.05;;;2.70;94.90;;;;;;4984415;28;20141;-87
2021/04/12 02:58:13;;;;;;;6.93;2.85;;;2.70;95.10;;;;;;4977098;28;20033;-87
2021/04/12 03:01:05;;;;;;;6.10;2.63;;;2.60;94.90;;;;;;4976525;28;20018;-88
2021/04/12 03:03:40;;;;;;;5.85;3.08;;;2.60;94.80;;;;;;4975914;28;20062;-86
2021/04/12 03:06:14;;;;;;;7.53;3.10;;;2.60;94.90;;;;;;4977453;28;20077;-87
2021/04/12 03:09:12;;;;;;;6.57;3.08;;;2.60;94.90;;;;;;4977385;28;20454;-87
2021/04/12 03:12:05;;;;;;;6.60;2.80;;;2.60;95.00;;;;;;4975924;28;20058;-86
2021/04/12 03:14:52;;;;;;;6.47;3.13;;;2.60;95.00;;;;;;4977245;28;20026;-87
2021/04/12 03:17:55;;;;;;;5.63;2.85;;;2.60;95.00;;;;;;4984311;28;20023;-87
2021/04/12 03:20:57;;;;;;;6.50;3.10;;;2.60;95.10;;;;;;4976811;28;20030;-87
2021/04/12 03:23:45;;;;;;;7.60;3.00;;;2.60;95.10;;;;;;4994108;28;20036;-86
2021/04/12 03:26:35;;;;;;;5.82;3.10;;;2.60;95.20;;;;;;4994341;28;20038;-86
2021/04/12 03:29:28;;;;;;;5.45;3.10;;;2.60;95.20;;;;;;4993908;28;20038;-86
2021/04/12 03:32:25;;;;;;;4.95;2.92;;;2.60;95.20;;;;;;4976644;28;20101;-86
2021/04/12 03:35:19;;;;;;;6.38;2.72;;;2.60;95.20;;;;;;4976883;28;20069;-86
2021/04/12 03:38:23;;;;;;;7.30;3.50;;;2.50;95.20;;;;;;4968119;28;20023;-87
2021/04/12 03:41:08;;;;;;;6.57;3.20;;;2.50;95.30;;;;;;4961442;28;20550;-86
2021/04/12 03:43:55;;;;;;;6.38;3.30;;;2.50;95.30;;;;;;4976537;28;20036;-87
2021/04/12 03:46:33;;;;;;;6.78;3.03;;;2.50;95.30;;;;;;4994356;28;20033;-85
2021/04/12 03:49:14;;;;;;;6.45;2.85;;;2.50;95.30;;;;;;4976068;28;20124;-86
2021/04/12 03:52:06;;;;;;;6.07;3.00;;;2.50;95.30;;;;;;4993563;28;20089;-86
2021/04/12 03:54:41;;;;;;;5.50;3.03;;;2.50;95.40;;;;;;4980485;28;20372;-87
2021/04/12 03:57:17;;;;;;;7.00;2.97;;;2.50;95.40;;;;;;4976384;28;20030;-86
2021/04/12 04:00:00;;;;;;;6.95;3.00;;;2.60;95.50;;;;;;4994109;28;20030;-86
2021/04/12 04:02:37;;;;;;;6.25;2.97;;;2.60;95.50;;;;;;4976248;28;20065;-86
2021/04/12 04:05:29;;;;;;;6.60;2.92;;;2.60;95.50;;;;;;4993648;28;20082;-86
2021/04/12 04:08:22;;;;;;;5.88;2.78;;;2.60;95.50;;;;;;4976308;28;20018;-86
2021/04/12 04:11:03;;;;;;;3.97;2.50;;;2.60;95.50;;;;;;4975742;28;20033;-87
2021/04/12 04:14:17;;;;;;;7.05;3.28;;;2.60;95.50;;;;;;4964363;28;20030;-87
2021/04/12 04:17:04;;;;;;;6.70;3.15;;;2.60;95.40;;;;;;4970859;28;20423;-86
2021/04/12 04:19:42;;;;;;;6.88;3.38;;;2.60;95.50;;;;;;4976108;28;20034;-85
2021/04/12 04:22:26;;;;;;;7.40;3.55;;;2.60;95.40;;;;;;4992856;28;20031;-87
2021/04/12 04:25:38;;;;;;;6.22;3.22;;;2.60;95.50;;;;;;4975092;28;20023;-86
2021/04/12 04:28:13;;;;;;;4.75;2.90;;;2.60;95.50;;;;;;4939146;28;20030;-86
2021/04/12 04:31:14;;;;;;;7.63;3.42;;;2.50;95.60;;;;;;4976024;28;20045;-86
2021/04/12 04:34:04;;;;;;;5.80;3.25;;;2.50;95.60;;;;;;4993031;28;20367;-86
2021/04/12 04:36:51;;;;;;;6.25;3.00;;;2.50;95.60;;;;;;4993303;28;20085;-86
2021/04/12 04:39:38;;;;;;;6.28;3.00;;;2.50;95.60;;;;;;4993581;28;20101;-85
2021/04/12 04:42:25;;;;;;;5.35;3.00;;;2.50;95.70;;;;;;4975214;28;20041;-86
2021/04/12 04:45:12;;;;;;;4.65;2.83;;;2.50;95.70;;;;;;4975113;28;20390;-86
2021/04/12 04:48:14;;;;;;;5.40;2.80;;;2.50;95.80;;;;;;4975650;28;20478;-87
2021/04/12 04:50:54;;;;;;;6.85;3.13;;;2.50;95.70;;;;;;4993037;28;20057;-87
2021/04/12 04:53:35;;;;;;;8.10;3.10;;;2.50;95.70;;;;;;4975891;28;20088;-87
2021/04/12 04:56:01;;;;;;;;;;;2.40;95.70;;;;;;4963815;28;20040;-87
2021/04/12 04:59:08;;;;;;;5.80;2.65;;;2.50;95.70;;;;;;4975584;28;19905;-86
2021/04/12 05:02:05;;;;;;;5.68;2.60;;;2.40;95.80;;;;;;4947673;28;20126;-86
2021/04/12 05:04:51;;;;;;;4.13;2.70;;;2.40;95.80;;;;;;4975222;28;20573;-85
2021/04/12 05:08:11;;;;;;;4.45;2.90;;;2.40;95.80;;;;;;4962744;28;20046;-87
2021/04/12 05:11:03;;;;;;;4.03;2.40;;;2.40;95.80;;;;;;4932114;29;20122;-86
2021/04/12 05:13:41;;;;;;;6.97;3.00;;;2.40;95.80;;;;;;4964448;28;20074;-84
2021/04/12 05:16:41;;;;;;;2.58;1.88;;;2.40;95.90;;;;;;4982042;28;20061;-86
2021/04/12 05:19:18;;;;;;;3.97;2.40;;;2.40;95.90;;;;;;4981272;28;20507;-87
2021/04/12 05:21:49;;;;;;;4.43;2.58;;;2.40;95.90;;;;;;4996737;28;20030;-86
2021/04/12 05:24:30;;;;;;;4.95;2.47;;;2.40;96.00;;;;;;4979481;28;20430;-87
2021/04/12 05:27:08;;;;;;;6.80;2.47;;;2.40;96.00;;;;;;4970435;28;20483;-88
2021/04/12 05:30:10;;;;;;;4.93;2.20;;;2.40;96.10;;;;;;4985290;28;20030;-88
2021/04/12 05:32:46;;;;;;;3.85;2.15;;;2.50;96.10;;;;;;4979899;28;20537;-88
2021/04/12 05:35:33;;;;;;;6.50;2.33;;;2.50;96.00;;;;;;4968008;28;20137;-87
2021/04/12 05:38:14;;;;;;;4.32;2.45;;;2.50;96.00;;;;;;4960489;28;20030;-88
2021/04/12 05:41:02;;;;;;;3.80;2.10;;;2.50;96.00;;;;;;4974939;28;20066;-88
2021/04/12 05:43:49;;;;;;;2.85;1.92;;;2.50;96.10;;;;;;4979772;28;20034;-87
2021/04/12 05:46:50;;;;;;;3.13;1.73;;;2.60;96.10;;;;;;4995446;28;20121;-88
2021/04/12 05:49:45;;;;;;;3.13;2.03;;;2.60;96.10;;;;;;4996621;28;20488;-87
2021/04/12 05:52:48;;;;;;;4.22;2.20;;;2.60;96.20;;;;;;4984522;28;20109;-89
2021/04/12 05:55:38;;;;;;;4.88;2.30;;;2.60;96.10;;;;;;4968907;28;20027;-88
2021/04/12 05:58:47;;;;;;;3.70;2.00;;;2.60;96.20;;;;;;4978966;28;20386;-89
2021/04/12 06:01:35;;;;;;;3.70;1.92;;;2.70;96.20;;;;;;4966690;28;20157;-88
2021/04/12 06:04:23;;;;;;;3.78;2.20;;;2.70;96.20;;;;;;4986614;28;20022;-88
2021/04/12 06:07:10;;;;;;;4.00;2.10;;;2.70;96.30;;;;;;4986815;28;20159;-89
2021/04/12 06:09:56;;;;;;;4.00;1.95;;;2.70;96.20;;;;;;4985408;28;20432;-87
2021/04/12 06:12:40;;;;;;;3.63;1.80;;;2.80;96.30;;;;;;4984489;28;20033;-89
2021/04/12 06:15:25;;;;;;;3.95;1.88;;;2.80;96.30;;;;;;4978774;28;20089;-89
2021/04/12 06:18:13;;;;;;;3.13;1.77;;;2.80;96.30;;;;;;4982207;28;20463;-88
2021/04/12 06:21:08;;;;;;;2.85;1.88;;;2.90;96.30;;;;;;4985024;28;20045;-89
2021/04/12 06:23:58;;;;;;;3.08;2.08;;;3.00;96.40;;;;;;4972394;28;20058;-89
2021/04/12 06:26:44;;;;;;;2.85;1.98;;;3.00;96.40;;;;;;4982749;28;20073;-88
2021/04/12 06:29:52;;;;;;;4.53;2.10;;;3.10;96.70;;;;;;4990587;28;20053;-88
2021/04/12 06:32:42;;;;;;;3.63;2.00;;;3.10;96.40;;;;;;4971374;28;20073;-87
2021/04/12 06:35:25;;;;;;;3.80;2.20;;;3.20;96.40;;;;;;4986255;28;20077;-88
2021/04/12 06:38:00;;;;;;;3.08;1.80;;;3.20;96.30;;;;;;4983938;28;20023;-91
2021/04/12 06:41:10;;;;;;;5.00;1.90;;;3.20;96.30;;;;;;4978146;28;20025;-87
2021/04/12 06:43:54;;;;;;;3.47;2.17;;;3.30;96.30;;;;;;4941749;28;20042;-88
2021/04/12 06:46:52;;;;;;;4.13;1.92;;;3.30;96.20;;;;;;4973786;28;20019;-87
2021/04/12 06:49:52;;;;;;;3.67;1.92;;;3.30;96.20;;;;;;4947625;28;20148;-87
2021/04/12 06:52:39;;;;;;;5.37;2.33;;;3.40;96.20;;;;;;4978363;28;20050;-87
2021/04/12 06:55:17;;;;;;;4.03;2.10;;;3.40;96.10;;;;;;4978393;28;20037;-87
2021/04/12 06:58:04;;;;;;;3.70;2.22;;;3.40;96.10;;;;;;4971963;28;20023;-86
2021/04/12 07:00:55;;;;;;;6.10;2.30;;;3.40;96.10;;;;;;4970881;28;20135;-87
2021/04/12 07:03:52;;;;;;;4.72;2.30;;;3.50;96.20;;;;;;4995530;28;20426;-87
2021/04/12 07:06:28;;;;;;;4.60;2.00;;;3.50;96.30;;;;;;4977039;28;20042;-87
2021/04/12 07:09:30;;;;;;;3.97;2.30;;;3.60;96.30;;;;;;4975685;28;20577;-85
2021/04/12 07:12:22;;;;;;;5.95;2.30;;;3.70;96.40;;;;;;4971736;28;20025;-84
2021/04/12 07:15:06;;;;;;;;;;;3.70;96.40;;;;;;4993239;28;20046;-87
2021/04/12 07:17:43;;;;;;;6.45;2.58;;;3.80;96.50;;;;;;4972296;28;19906;-89
2021/04/12 07:20:18;;;;;;;5.78;2.60;;;3.90;96.60;;;;;;4982675;28;20022;-89
2021/04/12 07:23:02;;;;;;;5.82;2.42;;;4.00;96.60;;;;;;4990082;28;20089;-88
2021/04/12 07:26:05;;;;;;;4.82;2.65;;;4.10;96.50;;;;;;4967554;28;20057;-90
2021/04/12 07:29:06;;;;;;;6.38;2.20;;;4.20;96.50;;;;;;4978747;28;20057;-91
2021/04/12 07:31:40;;;;;;;3.50;2.20;;;4.30;96.30;;;;;;4978721;28;20054;-89
2021/04/12 07:34:43;;;;;;;3.65;2.03;;;4.40;96.40;;;;;;4968705;28;20037;-89
2021/04/12 07:37:18;;;;;;;5.28;2.05;;;4.50;96.30;;;;;;4984834;28;20037;-89
2021/04/12 07:40:04;;;;;;;5.93;2.05;;;4.70;96.30;;;;;;4980349;28;20026;-88
2021/04/12 07:43:08;;;;;;;5.15;2.10;;;4.80;96.20;;;;;;4974683;28;20051;-89
2021/04/12 07:45:58;;;;;;;3.10;1.58;;;5.00;96.20;;;;;;4946228;28;20063;-87
2021/04/12 07:48:29;;;;;;;5.55;1.95;;;5.10;96.10;;;;;;4938997;29;20112;-88
2021/04/12 07:51:14;;;;;;;;;;;5.20;96.00;;;;;;4952169;29;20023;-88
2021/04/12 07:54:29;;;;;;;4.93;2.20;;;5.30;95.90;;;;;;4953679;28;19910;-90
2021/04/12 07:57:32;;;;;;;7.88;2.25;;;5.50;95.80;;;;;;4962237;28;20063;-89
2021/04/12 08:00:38;;;;;;;5.40;2.03;;;5.70;95.00;;;;;;4963298;29;20035;-91
2021/04/12 08:03:19;;;;;;;5.88;2.10;;;5.80;95.10;;;;;;4952418;29;20073;-92
2021/04/12 08:06:24;;;;;;;4.10;1.88;;;6.00;94.90;;;;;;4946702;29;20055;-89
2021/04/12 08:09:33;;;;;;;3.05;1.40;;;6.00;93.70;;;;;;4960072;29;20039;-89
2021/04/12 08:12:17;;;;;;;3.10;1.50;;;6.10;93.30;;;;;;4947773;29;20055;-89
2021/04/12 08:15:10;;;;;;;4.53;1.50;;;6.10;92.90;;;;;;4961234;29;20120;-90
2021/04/12 08:18:07;;;;;;;4.78;1.50;;;6.10;93.20;;;;;;4986423;28;20042;-93
2021/04/12 08:21:09;;;;;;;6.72;2.03;;;6.10;93.20;;;;;;4983410;28;20022;-90
2021/04/12 08:24:13;;;;;;;4.55;1.40;;;6.20;93.30;;;;;;4982978;28;20026;-88
2021/04/12 08:26:59;;;;;;;4.35;1.42;;;6.30;93.00;;;;;;4999988;28;20092;-91
2021/04/12 08:30:02;;;;;;;3.63;1.30;;;6.50;92.60;;;;;;4989741;28;20022;-91
2021/04/12 08:32:34;;;;;;;5.28;1.30;;;6.50;92.60;;;;;;4983060;28;20022;-95
2021/04/12 08:35:18;;;;;;;3.92;1.10;;;6.70;92.10;;;;;;4972264;28;20037;-88
2021/04/12 08:38:04;;;;;;;2.80;1.10;;;6.70;91.70;;;;;;4983090;28;20050;-90
2021/04/12 08:40:55;;;;;;;3.97;1.02;;;6.80;92.00;;;;;;4994652;28;20062;-92
2021/04/12 08:43:44;;;;;;;4.70;1.20;;;7.00;91.00;;;;;;4996113;28;20057;-91
2021/04/12 08:46:34;;;;;;;3.60;1.15;;;7.10;90.60;;;;;;4928731;28;20044;-92
2021/04/12 08:49:15;;;;;;;2.88;0.90;;;7.20;89.80;;;;;;4970146;28;20110;-91
2021/04/12 08:51:55;;;;;;;3.22;1.25;;;7.30;90.30;;;;;;4988284;28;20498;-90
2021/04/12 08:54:21;;;;;;;7.47;0.90;;;7.50;89.10;;;;;;4966325;28;20061;-91
2021/04/12 08:57:05;;;;;;;2.67;0.98;;;7.60;84.60;;;;;;4963649;28;20030;-92
2021/04/12 08:59:45;;;;;;;3.22;0.93;;;7.60;84.80;;;;;;4981394;28;20022;-89
2021/04/12 09:02:39;;;;;;;3.92;1.48;;;7.70;84.90;;;;;;4976565;28;20058;-91
2021/04/12 09:05:36;;;;;;;2.70;1.02;;;7.70;83.20;;;;;;4976532;28;20489;-90
2021/04/12 09:08:10;;;;;;;1.90;1.02;;;7.70;83.90;;;;;;4965256;28;20125;-92
2021/04/12 09:11:00;;;;;;;6.97;1.38;;;7.60;82.70;;;;;;4977079;28;20034;-90
2021/04/12 09:13:35;;;;;;;5.28;1.10;;;7.60;82.80;;;;;;4976835;28;20472;-90
2021/04/12 09:16:12;;;;;;;2.10;0.98;;;7.60;84.10;;;;;;4992781;23;20070;-85
2021/04/12 09:19:08;;;;;;;2.90;1.10;;;7.60;85.00;;;;;;4970834;28;20042;-84
2021/04/12 09:21:54;;;;;;;3.30;1.20;;;7.70;85.60;;;;;;4961904;28;20468;-85
2021/04/12 09:25:10;;;;;;;2.35;1.00;;;7.80;85.80;;;;;;4972863;28;20031;-85
2021/04/12 09:28:03;;;;;;;4.30;1.45;;;7.90;87.20;;;;;;4930728;29;20382;-85
2021/04/12 09:30:42;;;;;;;2.05;1.20;;;8.10;87.00;;;;;;4972013;28;20122;-84
2021/04/12 09:33:38;;;;;;;3.28;1.50;;;8.30;87.20;;;;;;4974578;28;20377;-84
2021/04/12 09:36:13;;;;;;;3.75;1.52;;;8.40;84.70;;;;;;4979674;28;20026;-86
2021/04/12 09:39:00;;;;;;;1.83;1.30;;;8.50;84.00;;;;;;4969361;28;20035;-84
2021/04/12 09:41:49;;;;;;;3.22;1.40;;;8.50;80.70;;;;;;4972635;28;20436;-85
2021/04/12 09:44:28;;;;;;;2.33;1.30;;;8.50;81.20;;;;;;4967603;28;20031;-85
2021/04/12 09:47:15;;;;;;;4.47;1.13;;;8.50;82.10;;;;;;4980100;28;20019;-84
2021/04/12 09:50:11;;;;;;;3.70;1.52;;;8.50;81.00;;;;;;4962129;28;20051;-84
2021/04/12 09:52:50;;;;;;;4.10;1.67;;;8.40;82.60;;;;;;4972899;28;20476;-84
2021/04/12 09:55:15;;;;;;;5.95;2.15;;;8.40;82.80;;;;;;4970870;28;20037;-84
2021/04/12 09:58:11;;;;;;;3.90;2.10;;;8.50;82.00;;;;;;4975041;28;20035;-84
2021/04/12 10:00:45;;;;;;;2.75;1.95;;;8.40;80.10;;;;;;4977894;28;20026;-85
2021/04/12 10:03:52;;;;;;;3.92;2.42;;;8.40;82.70;;;;;;4957643;28;20039;-85
2021/04/12 10:06:39;;;;;;;4.93;2.40;;;8.30;81.70;;;;;;4966170;28;20035;-84
2021/04/12 10:09:23;;;;;;;4.13;2.33;;;8.40;83.20;;;;;;4978222;28;20035;-84
2021/04/12 10:12:01;;;;;;;4.25;2.58;;;8.40;82.10;;;;;;4994873;28;20384;-84
2021/04/12 10:14:32;;;;;;;4.13;2.83;;;8.40;82.70;;;;;;4990719;28;20034;-84
2021/04/12 10:17:08;;;;;;;5.78;2.75;;;8.40;82.90;;;;;;4976715;28;20074;-84
2021/04/12 10:19:59;;;;;;;3.47;2.00;;;8.40;81.80;;;;;;4976860;28;20023;-84
2021/04/12 10:22:55;;;;;;;3.38;1.83;;;8.50;82.20;;;;;;4989218;28;20033;-84
2021/04/12 10:25:30;;;;;;;3.83;1.95;;;8.60;81.50;;;;;;4964859;28;20555;-84
2021/04/12 10:28:17;;;;;;;4.35;1.90;;;8.70;80.00;;;;;;4992447;28;20068;-84
2021/04/12 10:31:07;;;;;;;2.78;1.90;;;8.80;81.00;;;;;;4983410;28;20039;-84
2021/04/12 10:34:01;;;;;;;2.20;1.50;;;8.80;80.20;;;;;;4968972;28;20047;-84
2021/04/12 10:40:10;;;;;;;1.70;1.38;;;8.80;82.30;;;;;;4991585;28;20037;-84
2021/04/12 10:42:42;;;;;;;2.17;0.70;;;8.90;82.30;;;;;;4993298;28;20037;-84
2021/04/12 10:45:30;;;;;;;3.03;0.98;;;8.90;82.80;;;;;;4987396;28;20488;-86
2021/04/12 10:48:20;;;;;;;0.80;0.80;;;9.00;81.60;;;;;;4998619;28;20130;-86
2021/04/12 10:51:06;;;;;;;0.93;0.53;;;9.00;79.60;;;;;;4985655;28;20019;-86
2021/04/12 10:53:52;;;;;;;1.55;0.82;;;9.00;80.70;;;;;;4985946;28;20026;-86
2021/04/12 10:56:30;;;;;;;1.92;0.80;;;9.10;81.50;;;;;;5006345;28;20027;-86
2021/04/12 10:59:26;;;;;;;1.50;0.80;;;9.30;82.70;;;;;;5004809;28;20019;-86
2021/04/12 11:02:26;;;;;;;1.73;0.80;;;9.40;80.80;;;;;;4996399;28;20076;-86
2021/04/12 11:05:03;;;;;;;1.48;0.77;;;9.50;78.60;;;;;;4993688;23;20146;-82
2021/04/12 11:07:47;;;;;;;1.42;0.75;;;9.50;78.50;;;;;;4966124;28;20407;-82
2021/04/12 11:10:21;;;;;;;2.05;0.95;;;9.50;78.00;;;;;;4957066;28;20102;-82
2021/04/12 11:12:59;;;;;;;1.45;0.88;;;9.50;78.90;;;;;;4946638;28;20035;-83
2021/04/12 11:16:06;;;;;;;3.55;0.85;;;9.50;78.50;;;;;;4953291;29;20057;-83
2021/04/12 11:18:54;;;;;;;1.73;0.90;;;9.60;79.10;;;;;;4947467;28;20073;-83
2021/04/12 11:21:34;;;;;;;0.75;0.65;;;9.70;79.50;;;;;;4974955;28;20042;-84
2021/04/12 11:24:37;;;;;;;1.33;0.73;;;9.80;77.30;;;;;;4967419;28;20030;-86
2021/04/12 11:27:28;;;;;;;1.23;0.70;;;10.00;77.90;;;;;;4940381;28;20473;-86
2021/04/12 11:30:20;;;;;;;1.30;0.87;;;10.10;76.90;;;;;;4966801;28;20042;-86
2021/04/12 11:33:10;;;;;;;0.98;0.80;;;10.20;75.90;;;;;;4935007;28;20388;-84
2021/04/12 11:35:54;;;;;;;0.87;0.73;;;10.30;74.80;;;;;;4957267;28;20035;-83
2021/04/12 11:38:41;;;;;;;1.55;0.95;;;10.30;75.30;;;;;;4967099;28;20022;-84
2021/04/12 11:41:13;;;;;;;1.88;1.00;;;10.40;76.10;;;;;;4953318;28;20031;-85
2021/04/12 11:43:44;;;;;;;2.28;1.40;;;10.40;76.20;;;;;;4960973;28;20030;-84
2021/04/12 11:47:00;;;;;;;1.70;1.53;;;10.40;76.40;;;;;;4949337;28;20475;-84
2021/04/12 11:49:44;;;;;;;1.27;1.13;;;10.50;74.70;;;;;;4945165;28;20443;-83
2021/04/12 11:52:29;;;;;;;2.40;1.20;;;10.50;74.20;;;;;;4946610;29;20073;-83
2021/04/12 11:55:17;;;;;;;2.00;1.33;;;10.50;73.40;;;;;;4956502;28;20027;-82
2021/04/12 11:58:00;;;;;;;0.95;0.93;;;10.50;72.60;;;;;;4973673;28;20474;-82
2021/04/12 12:00:54;;;;;;;1.67;1.10;;;10.50;73.60;;;;;;4956674;28;20046;-83
2021/04/12 12:03:26;;;;;;;2.45;1.13;;;10.50;73.90;;;;;;4957936;28;20091;-82
2021/04/12 12:05:57;;;;;;;1.55;1.05;;;10.60;71.60;;;;;;4974375;28;20122;-82
2021/04/12 12:08:28;;;;;;;;;;;10.60;70.80;;;;;;4963127;28;20031;-82
2021/04/12 12:11:12;;;;;;;1.90;1.10;;;10.60;72.20;;;;;;4960551;28;19906;-83
2021/04/12 12:13:49;;;;;;;1.48;0.90;;;10.70;72.60;;;;;;4955785;28;20022;-83
2021/04/12 12:16:37;;;;;;;1.23;0.98;;;10.80;73.60;;;;;;4972411;28;20358;-83
2021/04/12 12:19:31;;;;;;;2.45;1.10;;;11.00;67.20;;;;;;4962431;28;20027;-83
2021/04/12 12:22:21;;;;;;;2.50;1.20;;;11.00;68.40;;;;;;4945743;28;20468;-83
2021/04/12 12:25:05;;;;;;;2.97;1.02;;;11.10;70.90;;;;;;4946909;28;20043;-83
2021/04/12 12:27:33;;;;;;;4.03;1.02;;;11.20;72.00;;;;;;4973956;28;20057;-83
2021/04/12 12:30:29;;;;;;;2.33;1.00;;;11.40;70.30;;;;;;4973718;28;20547;-83
2021/04/12 12:33:00;;;;;;;1.90;1.20;;;11.50;67.60;;;;;;4948299;28;20197;-83
2021/04/12 12:35:50;;;;;;;1.92;0.90;;;11.70;67.20;;;;;;4968151;28;20018;-83
2021/04/12 12:38:38;;;;;;;2.80;1.10;;;11.80;68.20;;;;;;4970832;28;20034;-83
2021/04/12 12:41:16;;;;;;;2.05;1.00;;;12.00;65.70;;;;;;4948698;28;20023;-83
2021/04/12 12:43:42;;;;;;;1.70;1.20;;;12.10;67.40;;;;;;4973830;28;20416;-81
2021/04/12 12:46:09;;;;;;;0.93;0.80;;;12.10;68.00;;;;;;4929027;29;20122;-83
2021/04/12 12:48:43;;;;;;;1.45;0.95;;;12.00;65.90;;;;;;4967616;28;20393;-83
2021/04/12 12:51:17;;;;;;;2.70;0.73;;;11.90;66.10;;;;;;4947399;28;20129;-83
2021/04/12 12:53:48;;;;;;;4.78;1.40;;;11.70;64.20;;;;;;4969216;28;20064;-82
2021/04/12 12:56:28;;;;;;;8.38;2.42;;;11.50;67.90;;;;;;4936924;29;20070;-82
2021/04/12 12:59:05;;;;;;;5.57;1.40;;;11.30;67.50;;;;;;4955219;28;20400;-82
2021/04/12 13:01:40;;;;;;;2.67;1.23;;;11.00;68.80;;;;;;4973436;28;20026;-82
2021/04/12 13:04:11;;;;;;;4.75;1.58;;;10.70;69.60;;;;;;4955536;28;20471;-83
2021/04/12 13:06:38;;;;;;;2.22;1.10;;;10.50;70.70;;;;;;4955802;28;20039;-83
2021/04/12 13:09:13;;;;;;;3.78;1.40;;;10.30;74.50;;;;;;4926743;28;20031;-83
2021/04/12 13:11:46;;;;;;;2.63;1.27;;;10.10;74.40;;;;;;4955854;28;20058;-82
2021/04/12 13:14:24;;;;;;;2.13;1.20;;;10.00;76.10;;;;;;4952171;29;20019;-83
2021/04/12 13:17:31;;;;;;;4.68;1.73;;;9.90;76.80;;;;;;4947595;28;20419;-83
2021/04/12 13:20:01;;;;;;;3.30;1.42;;;9.90;78.80;;;;;;4947095;29;20103;-83
2021/04/12 13:22:46;;;;;;;3.15;1.17;;;9.80;78.60;;;;;;4951655;28;20027;-83
2021/04/12 13:25:17;;;;;;;2.00;1.10;;;9.80;78.80;;;;;;4963020;28;20024;-83
2021/04/12 13:27:48;;;;;;;1.35;0.80;;;9.80;77.20;;;;;;4952092;28;20122;-85
2021/04/12 13:30:26;;;;;;;2.22;1.02;;;9.70;75.30;;;;;;4957773;28;20493;-83
2021/04/12 13:33:18;;;;;;;1.88;0.90;;;9.70;78.60;;;;;;4956835;28;20027;-83
2021/04/12 13:35:45;;;;;;;3.15;1.00;;;9.70;79.20;;;;;;4966001;28;20090;-83
2021/04/12 13:38:19;;;;;;;1.52;0.88;;;9.70;79.40;;;;;;4959236;28;20054;-83
2021/04/12 13:41:07;;;;;;;1.52;0.70;;;9.80;77.70;;;;;;4976994;28;20495;-83
2021/04/12 13:43:36;;;;;;;4.60;0.85;;;9.80;77.80;;;;;;4947360;28;20018;-83
2021/04/12 13:46:15;;;;;;;0.95;0.70;;;9.90;77.90;;;;;;4946381;29;20039;-83
2021/04/12 13:48:47;;;;;;;3.95;1.10;;;9.80;77.40;;;;;;4959425;28;20018;-83
2021/04/12 13:51:25;;;;;;;2.10;1.02;;;9.80;74.30;;;;;;4943047;28;20045;-83
2021/04/12 13:54:06;;;;;;;2.78;0.75;;;9.80;75.00;;;;;;4948004;28;20027;-83
2021/04/12 13:56:42;;;;;;;2.60;0.98;;;9.70;75.60;;;;;;4960471;28;20034;-83
2021/04/12 13:59:13;;;;;;;2.38;1.05;;;9.60;73.00;;;;;;4949337;28;20031;-83
2021/04/12 14:01:48;;;;;;;2.00;0.80;;;9.60;75.10;;;;;;4956815;28;20035;-83
2021/04/12 14:04:20;;;;;;;2.67;1.10;;;9.50;74.90;;;;;;4934943;28;20068;-83
2021/04/12 14:07:15;;;;;;;2.42;0.80;;;9.60;70.90;;;;;;4923917;29;20051;-83
2021/04/12 14:09:48;;;;;;;1.60;0.90;;;9.60;71.60;;;;;;4931802;29;20422;-84
2021/04/12 14:12:21;;;;;;;4.28;1.38;;;9.70;73.10;;;;;;4946974;29;20032;-82
2021/04/12 14:14:55;;;;;;;3.85;1.25;;;9.70;71.40;;;;;;4946752;29;20061;-82
2021/04/12 14:17:27;;;;;;;4.05;0.90;;;10.00;75.40;;;;;;4933140;29;20115;-81
2021/04/12 14:20:34;;;;;;;1.25;0.70;;;10.20;74.70;;;;;;4930596;29;20087;-82
2021/04/12 14:23:29;;;;;;;4.93;0.90;;;10.50;75.40;;;;;;4903743;29;20119;-83
2021/04/12 14:26:02;;;;;;;2.90;1.00;;;10.90;72.30;;;;;;4937913;29;20483;-82
2021/04/12 14:28:32;;;;;;;2.80;1.05;;;11.20;70.90;;;;;;4923694;29;20039;-83
2021/04/12 14:31:22;;;;;;;3.22;0.95;;;11.40;69.20;;;;;;4933084;29;20051;-84
2021/04/12 14:33:51;;;;;;;1.75;0.95;;;11.60;70.40;;;;;;4934346;29;20031;-83
2021/04/12 14:36:23;;;;;;;4.25;1.25;;;11.80;69.90;;;;;;4934795;29;20020;-82